sensor_id;sensor_type;location;lat;lon;timestamp;pressure;altitude;pressure_sealevel;temperature;humidity
37200;BME280;23096;50.892;16.746;2022-12-01T00:02:14;100417.11;;;-0.35;81.55
37200;BME280;23096;50.892;16.746;2022-12-01T00:04:40;100417.53;;;-0.36;81.54
37200;BME280;23096;50.892;16.746;2022-12-01T00:07:05;100413.16;;;-0.40;81.52
37200;BME280;23096;50.892;16.746;2022-12-01T00:09:31;100419.05;;;-0.41;81.52
37200;BME280;23096;50.892;16.746;2022-12-01T00:12:15;100417.78;;;-0.41;81.52
37200;BME280;23096;50.892;16.746;2022-12-01T00:14:41;100419.47;;;-0.42;81.53
37200;BME280;23096;50.892;16.746;2022-12-01T00:17:07;100418.22;;;-0.40;81.55
37200;BME280;23096;50.892;16.746;2022-12-01T00:19:33;100417.73;;;-0.43;81.50
37200;BME280;23096;50.892;16.746;2022-12-01T00:21:58;100423.58;;;-0.45;81.51
37200;BME280;23096;50.892;16.746;2022-12-01T00:24:24;100423.96;;;-0.46;81.51
37200;BME280;23096;50.892;16.746;2022-12-01T00:26:50;100422.25;;;-0.47;81.50
37200;BME280;23096;50.892;16.746;2022-12-01T00:29:16;100417.19;;;-0.47;81.51
37200;BME280;23096;50.892;16.746;2022-12-01T00:31:42;100415.09;;;-0.46;81.52
37200;BME280;23096;50.892;16.746;2022-12-01T00:34:11;100412.52;;;-0.47;81.49
37200;BME280;23096;50.892;16.746;2022-12-01T00:36:38;100412.88;;;-0.49;81.49
37200;BME280;23096;50.892;16.746;2022-12-01T00:39:04;100421.73;;;-0.49;81.50
37200;BME280;23096;50.892;16.746;2022-12-01T00:41:30;100421.73;;;-0.49;81.47
37200;BME280;23096;50.892;16.746;2022-12-01T00:43:55;100411.53;;;-0.52;81.46
37200;BME280;23096;50.892;16.746;2022-12-01T00:46:21;100411.97;;;-0.51;81.52
37200;BME280;23096;50.892;16.746;2022-12-01T00:48:47;100411.55;;;-0.51;81.52
37200;BME280;23096;50.892;16.746;2022-12-01T00:51:13;100415.33;;;-0.52;81.46
37200;BME280;23096;50.892;16.746;2022-12-01T00:53:39;100408.12;;;-0.53;81.45
37200;BME280;23096;50.892;16.746;2022-12-01T00:56:05;100411.86;;;-0.54;81.46
37200;BME280;23096;50.892;16.746;2022-12-01T00:58:31;100406.00;;;-0.53;81.50
37200;BME280;23096;50.892;16.746;2022-12-01T01:00:58;100405.15;;;-0.54;81.46
37200;BME280;23096;50.892;16.746;2022-12-01T01:03:26;100405.52;;;-0.56;81.46
37200;BME280;23096;50.892;16.746;2022-12-01T01:05:52;100402.05;;;-0.58;81.45
37200;BME280;23096;50.892;16.746;2022-12-01T01:08:18;100405.45;;;-0.57;81.48
37200;BME280;23096;50.892;16.746;2022-12-01T01:10:45;100403.36;;;-0.56;81.49
37200;BME280;23096;50.892;16.746;2022-12-01T01:13:13;100405.89;;;-0.56;81.47
37200;BME280;23096;50.892;16.746;2022-12-01T01:15:39;100406.78;;;-0.56;81.47
37200;BME280;23096;50.892;16.746;2022-12-01T01:18:06;100402.92;;;-0.57;81.44
37200;BME280;23096;50.892;16.746;2022-12-01T01:20:33;100398.22;;;-0.60;81.46
37200;BME280;23096;50.892;16.746;2022-12-01T01:22:59;100399.13;;;-0.57;81.46
37200;BME280;23096;50.892;16.746;2022-12-01T01:25:25;100397.81;;;-0.59;81.47
37200;BME280;23096;50.892;16.746;2022-12-01T01:30:26;100399.02;;;-0.61;81.44
37200;BME280;23096;50.892;16.746;2022-12-01T01:32:52;100394.79;;;-0.62;81.43
37200;BME280;23096;50.892;16.746;2022-12-01T01:35:18;100395.17;;;-0.62;81.47
37200;BME280;23096;50.892;16.746;2022-12-01T01:37:44;100385.09;;;-0.61;81.48
37200;BME280;23096;50.892;16.746;2022-12-01T01:40:10;100386.36;;;-0.61;81.46
37200;BME280;23096;50.892;16.746;2022-12-01T01:42:36;100390.52;;;-0.63;81.40
37200;BME280;23096;50.892;16.746;2022-12-01T01:45:02;100388.77;;;-0.65;81.39
37200;BME280;23096;50.892;16.746;2022-12-01T01:47:31;100386.62;;;-0.66;81.40
37200;BME280;23096;50.892;16.746;2022-12-01T01:49:58;100382.75;;;-0.69;81.36
37200;BME280;23096;50.892;16.746;2022-12-01T01:52:28;100386.02;;;-0.71;81.41
37200;BME280;23096;50.892;16.746;2022-12-01T01:54:54;100385.17;;;-0.72;81.37
37200;BME280;23096;50.892;16.746;2022-12-01T01:57:26;100383.91;;;-0.72;81.41
37200;BME280;23096;50.892;16.746;2022-12-01T01:59:52;100387.28;;;-0.71;81.41
37200;BME280;23096;50.892;16.746;2022-12-01T02:02:19;100381.73;;;-0.74;81.40
37200;BME280;23096;50.892;16.746;2022-12-01T02:04:46;100386.85;;;-0.72;81.40
37200;BME280;23096;50.892;16.746;2022-12-01T02:07:15;100383.91;;;-0.72;81.42
37200;BME280;23096;50.892;16.746;2022-12-01T02:09:42;100380.47;;;-0.74;81.36
37200;BME280;23096;50.892;16.746;2022-12-01T02:12:11;100385.42;;;-0.77;81.32
37200;BME280;23096;50.892;16.746;2022-12-01T02:37:32;100389.64;;;-0.90;81.37
37200;BME280;23096;50.892;16.746;2022-12-01T02:39:49;100384.12;;;-0.91;81.37
37200;BME280;23096;50.892;16.746;2022-12-01T02:42:32;100379.00;;;-0.93;81.33
37200;BME280;23096;50.892;16.746;2022-12-01T02:45:16;100383.16;;;-0.95;81.30
37200;BME280;23096;50.892;16.746;2022-12-01T02:47:53;100379.72;;;-0.97;81.29
37200;BME280;23096;50.892;16.746;2022-12-01T02:50:21;100381.28;;;-1.01;81.29
37200;BME280;23096;50.892;16.746;2022-12-01T02:52:48;100379.55;;;-1.02;81.29
37200;BME280;23096;50.892;16.746;2022-12-01T02:55:14;100377.33;;;-1.05;81.25
37200;BME280;23096;50.892;16.746;2022-12-01T02:57:40;100371.88;;;-1.05;81.29
37200;BME280;23096;50.892;16.746;2022-12-01T03:00:06;100364.67;;;-1.05;81.35
37200;BME280;23096;50.892;16.746;2022-12-01T03:02:35;100369.05;;;-1.01;81.43
37200;BME280;23096;50.892;16.746;2022-12-01T03:05:23;100361.10;;;-0.99;81.33
37200;BME280;23096;50.892;16.746;2022-12-01T03:18:36;100359.84;;;-0.99;81.40
37200;BME280;23096;50.892;16.746;2022-12-01T03:21:48;100351.47;;;-0.97;81.38
37200;BME280;23096;50.892;16.746;2022-12-01T03:23:41;100360.33;;;-0.97;81.38
37200;BME280;23096;50.892;16.746;2022-12-01T03:26:09;100354.83;;;-0.98;81.34
37200;BME280;23096;50.892;16.746;2022-12-01T03:28:38;100358.16;;;-0.99;81.37
37200;BME280;23096;50.892;16.746;2022-12-01T03:31:07;100348.09;;;-0.97;81.36
37200;BME280;23096;50.892;16.746;2022-12-01T03:33:35;100360.33;;;-0.97;81.36
37200;BME280;23096;50.892;16.746;2022-12-01T03:38:36;100364.70;;;-0.92;81.41
37200;BME280;23096;50.892;16.746;2022-12-01T03:41:04;100364.72;;;-0.91;81.40
37200;BME280;23096;50.892;16.746;2022-12-01T03:43:33;100364.17;;;-0.95;81.28
37200;BME280;23096;50.892;16.746;2022-12-01T03:48:37;100365.03;;;-0.94;81.38
37200;BME280;23096;50.892;16.746;2022-12-01T03:54:20;100355.06;;;-0.90;81.43
37200;BME280;23096;50.892;16.746;2022-12-01T03:56:26;100354.30;;;-0.87;81.44
37200;BME280;23096;50.892;16.746;2022-12-01T03:58:55;100352.34;;;-0.83;81.46
37200;BME280;23096;50.892;16.746;2022-12-01T04:01:22;100357.03;;;-0.81;81.41
37200;BME280;23096;50.892;16.746;2022-12-01T04:03:50;100353.31;;;-0.78;81.45
37200;BME280;23096;50.892;16.746;2022-12-01T04:06:16;100354.14;;;-0.79;81.38
37200;BME280;23096;50.892;16.746;2022-12-01T04:08:42;100360.00;;;-0.80;81.32
37200;BME280;23096;50.892;16.746;2022-12-01T04:11:08;100361.20;;;-0.83;81.29
37200;BME280;23096;50.892;16.746;2022-12-01T04:13:52;100364.52;;;-0.84;81.35
37200;BME280;23096;50.892;16.746;2022-12-01T04:16:18;100364.11;;;-0.84;81.33
37200;BME280;23096;50.892;16.746;2022-12-01T04:18:44;100362.79;;;-0.85;81.30
37200;BME280;23096;50.892;16.746;2022-12-01T04:21:10;100364.83;;;-0.88;81.32
37200;BME280;23096;50.892;16.746;2022-12-01T04:23:36;100362.30;;;-0.88;81.32
37200;BME280;23096;50.892;16.746;2022-12-01T04:26:20;100365.30;;;-0.87;81.35
37200;BME280;23096;50.892;16.746;2022-12-01T04:28:45;100364.03;;;-0.87;81.33
37200;BME280;23096;50.892;16.746;2022-12-01T04:31:11;100365.79;;;-0.84;81.35
37200;BME280;23096;50.892;16.746;2022-12-01T04:33:37;100358.99;;;-0.85;81.32
37200;BME280;23096;50.892;16.746;2022-12-01T04:36:03;100356.13;;;-0.83;81.32
37200;BME280;23096;50.892;16.746;2022-12-01T04:38:29;100352.36;;;-0.82;81.37
37200;BME280;23096;50.892;16.746;2022-12-01T04:40:55;100354.89;;;-0.82;81.29
37200;BME280;23096;50.892;16.746;2022-12-01T04:43:21;100350.71;;;-0.81;81.34
37200;BME280;23096;50.892;16.746;2022-12-01T04:45:47;100360.89;;;-0.80;81.30
37200;BME280;23096;50.892;16.746;2022-12-01T04:48:13;100362.95;;;-0.81;81.27
37200;BME280;23096;50.892;16.746;2022-12-01T04:50:39;100369.69;;;-0.81;81.26
37200;BME280;23096;50.892;16.746;2022-12-01T04:53:05;100373.02;;;-0.82;81.27
37200;BME280;23096;50.892;16.746;2022-12-01T04:55:35;100370.48;;;-0.82;81.31
37200;BME280;23096;50.892;16.746;2022-12-01T04:58:03;100375.24;;;-0.79;81.36
37200;BME280;23096;50.892;16.746;2022-12-01T05:00:29;100377.88;;;-0.75;81.35
37200;BME280;23096;50.892;16.746;2022-12-01T05:02:55;100375.66;;;-0.79;81.25
37200;BME280;23096;50.892;16.746;2022-12-01T05:05:22;100372.72;;;-0.79;81.28
37200;BME280;23096;50.892;16.746;2022-12-01T05:07:48;100372.30;;;-0.78;81.28
37200;BME280;23096;50.892;16.746;2022-12-01T05:10:13;100377.83;;;-0.77;81.33
37200;BME280;23096;50.892;16.746;2022-12-01T05:12:40;100372.41;;;-0.75;81.32
37200;BME280;23096;50.892;16.746;2022-12-01T05:15:06;100366.86;;;-0.78;81.24
37200;BME280;23096;50.892;16.746;2022-12-01T05:17:32;100368.12;;;-0.78;81.23
37200;BME280;23096;50.892;16.746;2022-12-01T05:19:58;100359.31;;;-0.76;81.31
37200;BME280;23096;50.892;16.746;2022-12-01T05:22:42;100365.66;;;-0.74;81.29
37200;BME280;23096;50.892;16.746;2022-12-01T05:25:08;100372.05;;;-0.73;81.29
37200;BME280;23096;50.892;16.746;2022-12-01T05:27:34;100371.25;;;-0.72;81.28
37200;BME280;23096;50.892;16.746;2022-12-01T05:30:00;100356.55;;;-0.69;81.33
37200;BME280;23096;50.892;16.746;2022-12-01T05:32:25;100361.30;;;-0.66;81.36
37200;BME280;23096;50.892;16.746;2022-12-01T05:34:51;100366.42;;;-0.64;81.32
37200;BME280;23096;50.892;16.746;2022-12-01T05:37:17;100368.53;;;-0.64;81.26
37200;BME280;23096;50.892;16.746;2022-12-01T05:39:43;100369.42;;;-0.63;81.30
37200;BME280;23096;50.892;16.746;2022-12-01T05:42:09;100362.36;;;-0.59;81.35
37200;BME280;23096;50.892;16.746;2022-12-01T05:44:35;100363.75;;;-0.54;81.37
37200;BME280;23096;50.892;16.746;2022-12-01T05:47:01;100364.69;;;-0.52;81.34
37200;BME280;23096;50.892;16.746;2022-12-01T05:49:26;100364.70;;;-0.51;81.30
37200;BME280;23096;50.892;16.746;2022-12-01T05:51:53;100364.38;;;-0.49;81.26
37200;BME280;23096;50.892;16.746;2022-12-01T05:54:19;100368.56;;;-0.49;81.22
37200;BME280;23096;50.892;16.746;2022-12-01T05:56:45;100368.97;;;-0.50;81.23
37200;BME280;23096;50.892;16.746;2022-12-01T05:59:11;100370.30;;;-0.48;81.25
37200;BME280;23096;50.892;16.746;2022-12-01T06:01:37;100371.20;;;-0.46;81.22
37200;BME280;23096;50.892;16.746;2022-12-01T06:04:03;100373.31;;;-0.46;81.25
37200;BME280;23096;50.892;16.746;2022-12-01T06:06:29;100375.89;;;-0.44;81.24
37200;BME280;23096;50.892;16.746;2022-12-01T06:08:54;100374.99;;;-0.46;81.17
37200;BME280;23096;50.892;16.746;2022-12-01T06:11:21;100374.20;;;-0.45;81.23
37200;BME280;23096;50.892;16.746;2022-12-01T06:13:47;100374.27;;;-0.42;81.25
37200;BME280;23096;50.892;16.746;2022-12-01T06:16:13;100380.22;;;-0.42;81.23
37200;BME280;23096;50.892;16.746;2022-12-01T06:18:38;100380.23;;;-0.40;81.19
37200;BME280;23096;50.892;16.746;2022-12-01T06:21:05;100381.11;;;-0.40;81.17
37200;BME280;23096;50.892;16.746;2022-12-01T06:23:31;100381.91;;;-0.41;81.16
37200;BME280;23096;50.892;16.746;2022-12-01T06:25:57;100381.91;;;-0.41;81.16
37200;BME280;23096;50.892;16.746;2022-12-01T06:28:23;100378.53;;;-0.41;81.14
37200;BME280;23096;50.892;16.746;2022-12-01T06:30:49;100386.56;;;-0.40;81.18
37200;BME280;23096;50.892;16.746;2022-12-01T06:33:15;100384.91;;;-0.40;81.17
37200;BME280;23096;50.892;16.746;2022-12-01T06:35:41;100379.37;;;-0.41;81.13
37200;BME280;23096;50.892;16.746;2022-12-01T06:38:07;100383.65;;;-0.40;81.19
37200;BME280;23096;50.892;16.746;2022-12-01T06:40:33;100383.65;;;-0.40;81.16
37200;BME280;23096;50.892;16.746;2022-12-01T06:42:59;100379.84;;;-0.40;81.14
37200;BME280;23096;50.892;16.746;2022-12-01T06:45:28;100382.77;;;-0.40;81.14
37200;BME280;23096;50.892;16.746;2022-12-01T06:47:55;100381.97;;;-0.39;81.14
37200;BME280;23096;50.892;16.746;2022-12-01T06:50:21;100392.09;;;-0.39;81.14
37200;BME280;23096;50.892;16.746;2022-12-01T06:52:48;100385.30;;;-0.40;81.15
37200;BME280;23096;50.892;16.746;2022-12-01T06:55:14;100390.78;;;-0.41;81.13
37200;BME280;23096;50.892;16.746;2022-12-01T06:57:40;100389.09;;;-0.40;81.11
37200;BME280;23096;50.892;16.746;2022-12-01T07:00:07;100395.84;;;-0.41;81.12
37200;BME280;23096;50.892;16.746;2022-12-01T07:02:34;100389.92;;;-0.41;81.13
37200;BME280;23096;50.892;16.746;2022-12-01T07:05:00;100396.27;;;-0.41;81.14
37200;BME280;23096;50.892;16.746;2022-12-01T07:07:26;100403.44;;;-0.41;81.10
37200;BME280;23096;50.892;16.746;2022-12-01T07:09:52;100397.06;;;-0.42;81.08
37200;BME280;23096;50.892;16.746;2022-12-01T07:12:18;100400.00;;;-0.43;81.06
37200;BME280;23096;50.892;16.746;2022-12-01T07:14:44;100404.16;;;-0.45;81.06
37200;BME280;23096;50.892;16.746;2022-12-01T07:17:10;100408.07;;;-0.42;81.19
37200;BME280;23096;50.892;16.746;2022-12-01T07:19:35;100404.29;;;-0.40;81.16
37200;BME280;23096;50.892;16.746;2022-12-01T07:22:03;100404.34;;;-0.39;81.15
37200;BME280;23096;50.892;16.746;2022-12-01T07:24:29;100412.95;;;-0.33;81.25
37200;BME280;23096;50.892;16.746;2022-12-01T07:26:55;100401.23;;;-0.30;81.25
37200;BME280;23096;50.892;16.746;2022-12-01T07:29:21;100408.94;;;-0.27;81.24
37200;BME280;23096;50.892;16.746;2022-12-01T07:31:47;100412.80;;;-0.25;81.17
37200;BME280;23096;50.892;16.746;2022-12-01T07:34:13;100409.48;;;-0.23;81.24
37200;BME280;23096;50.892;16.746;2022-12-01T07:36:39;100408.75;;;-0.18;81.25
37200;BME280;23096;50.892;16.746;2022-12-01T07:39:05;100412.60;;;-0.17;81.24
37200;BME280;23096;50.892;16.746;2022-12-01T07:41:32;100411.88;;;-0.13;81.31
37200;BME280;23096;50.892;16.746;2022-12-01T07:43:58;100407.32;;;-0.10;81.24
37200;BME280;23096;50.892;16.746;2022-12-01T07:46:25;100406.91;;;-0.10;81.18
37200;BME280;23096;50.892;16.746;2022-12-01T07:48:52;100413.76;;;-0.07;81.23
37200;BME280;23096;50.892;16.746;2022-12-01T07:51:19;100416.83;;;-0.03;81.30
37200;BME280;23096;50.892;16.746;2022-12-01T07:53:46;100418.19;;;0.00;81.27
37200;BME280;23096;50.892;16.746;2022-12-01T07:56:16;100413.92;;;-0.01;81.24
37200;BME280;23096;50.892;16.746;2022-12-01T07:58:43;100418.21;;;0.02;81.24
37200;BME280;23096;50.892;16.746;2022-12-01T08:01:16;100414.45;;;0.03;81.24
37200;BME280;23096;50.892;16.746;2022-12-01T08:03:40;100414.45;;;0.03;81.21
37200;BME280;23096;50.892;16.746;2022-12-01T08:06:07;100414.41;;;0.02;81.17
37200;BME280;23096;50.892;16.746;2022-12-01T08:08:33;100406.80;;;0.02;81.17
37200;BME280;23096;50.892;16.746;2022-12-01T08:11:01;100407.69;;;0.02;81.21
37200;BME280;23096;50.892;16.746;2022-12-01T08:13:29;100403.91;;;0.04;81.29
37200;BME280;23096;50.892;16.746;2022-12-01T08:15:55;100406.48;;;0.05;81.20
37200;BME280;23096;50.892;16.746;2022-12-01T08:18:21;100408.17;;;0.05;81.16
37200;BME280;23096;50.892;16.746;2022-12-01T08:20:47;100403.52;;;0.04;81.19
37200;BME280;23096;50.892;16.746;2022-12-01T08:23:14;100401.84;;;0.05;81.16
37200;BME280;23096;50.892;16.746;2022-12-01T08:25:40;100403.95;;;0.05;81.16
37200;BME280;23096;50.892;16.746;2022-12-01T08:28:06;100407.38;;;0.06;81.15
37200;BME280;23096;50.892;16.746;2022-12-01T08:30:32;100401.05;;;0.07;81.18
37200;BME280;23096;50.892;16.746;2022-12-01T08:32:58;100400.20;;;0.07;81.15
37200;BME280;23096;50.892;16.746;2022-12-01T08:35:24;100403.16;;;0.06;81.12
37200;BME280;23096;50.892;16.746;2022-12-01T08:37:50;100409.44;;;0.05;81.10
37200;BME280;23096;50.892;16.746;2022-12-01T08:40:17;100409.02;;;0.05;81.11
37200;BME280;23096;50.892;16.746;2022-12-01T08:42:43;100406.44;;;0.04;81.09
37200;BME280;23096;50.892;16.746;2022-12-01T08:45:10;100408.54;;;0.03;81.09
37200;BME280;23096;50.892;16.746;2022-12-01T08:47:36;100417.36;;;0.01;81.08
37200;BME280;23096;50.892;16.746;2022-12-01T08:50:02;100412.24;;;-0.01;81.11
37200;BME280;23096;50.892;16.746;2022-12-01T08:52:32;100413.92;;;-0.01;81.09
37200;BME280;23096;50.892;16.746;2022-12-01T08:55:03;100413.92;;;-0.01;81.10
37200;BME280;23096;50.892;16.746;2022-12-01T08:57:28;100411.34;;;-0.03;81.09
37200;BME280;23096;50.892;16.746;2022-12-01T08:59:54;100416.45;;;-0.01;81.12
37200;BME280;23096;50.892;16.746;2022-12-01T09:02:20;100417.27;;;-0.02;81.11
37200;BME280;23096;50.892;16.746;2022-12-01T09:04:49;100423.27;;;0.00;81.12
37200;BME280;23096;50.892;16.746;2022-12-01T09:07:15;100412.76;;;0.02;81.14
37200;BME280;23096;50.892;16.746;2022-12-01T09:09:42;100418.62;;;0.01;81.09
37200;BME280;23096;50.892;16.746;2022-12-01T09:12:08;100422.06;;;0.03;81.14
37200;BME280;23096;50.892;16.746;2022-12-01T09:14:38;100418.73;;;0.04;81.13
37200;BME280;23096;50.892;16.746;2022-12-01T09:17:05;100421.31;;;0.06;81.15
37200;BME280;23096;50.892;16.746;2022-12-01T09:19:32;100413.34;;;0.08;81.18
37200;BME280;23096;50.892;16.746;2022-12-01T09:21:58;100421.02;;;0.11;81.15
37200;BME280;23096;50.892;16.746;2022-12-01T09:24:25;100415.94;;;0.11;81.14
37200;BME280;23096;50.892;16.746;2022-12-01T09:26:54;100417.67;;;0.12;81.15
37200;BME280;23096;50.892;16.746;2022-12-01T09:29:29;100413.51;;;0.14;81.19
37200;BME280;23096;50.892;16.746;2022-12-01T09:31:55;100409.70;;;0.14;81.16
37200;BME280;23096;50.892;16.746;2022-12-01T09:34:22;100416.89;;;0.14;81.12
37200;BME280;23096;50.892;16.746;2022-12-01T09:36:48;100408.91;;;0.15;81.13
37200;BME280;23096;50.892;16.746;2022-12-01T09:39:15;100411.02;;;0.15;81.10
37200;BME280;23096;50.892;16.746;2022-12-01T09:41:45;100408.91;;;0.15;81.13
37200;BME280;23096;50.892;16.746;2022-12-01T09:52:27;100397.22;;;0.20;81.14
37200;BME280;23096;50.892;16.746;2022-12-01T09:54:56;100394.75;;;0.23;81.16
37200;BME280;23096;50.892;16.746;2022-12-01T09:57:31;100394.32;;;0.22;81.09
37200;BME280;23096;50.892;16.746;2022-12-01T10:00:00;100392.69;;;0.24;81.09
37200;BME280;23096;50.892;16.746;2022-12-01T10:05:04;100393.27;;;0.30;81.19
37200;BME280;23096;50.892;16.746;2022-12-01T10:07:35;100394.96;;;0.31;81.15
37200;BME280;23096;50.892;16.746;2022-12-01T10:10:04;100386.50;;;0.30;81.12
37200;BME280;23096;50.892;16.746;2022-12-01T10:12:32;100384.02;;;0.32;81.16
37200;BME280;23096;50.892;16.746;2022-12-01T10:20:30;100389.23;;;0.36;81.12
37200;BME280;23096;50.892;16.746;2022-12-01T10:25:59;100382.42;;;0.35;81.08
37200;BME280;23096;50.892;16.746;2022-12-01T10:31:17;100392.20;;;0.37;81.15
37200;BME280;23096;50.892;16.746;2022-12-01T10:33:50;100379.56;;;0.39;81.14
37200;BME280;23096;50.892;16.746;2022-12-01T10:36:29;100379.66;;;0.42;81.21
37200;BME280;23096;50.892;16.746;2022-12-01T10:38:55;100373.80;;;0.45;81.13
37200;BME280;23096;50.892;16.746;2022-12-01T10:41:28;100367.83;;;0.43;81.05
37200;BME280;23096;50.892;16.746;2022-12-01T10:43:56;100361.91;;;0.42;81.09
37200;BME280;23096;50.892;16.746;2022-12-01T10:49:08;100359.94;;;0.48;81.13
37200;BME280;23096;50.892;16.746;2022-12-01T10:51:52;100351.82;;;0.45;81.05
37200;BME280;23096;50.892;16.746;2022-12-01T10:54:20;100356.14;;;0.48;81.12
37200;BME280;23096;50.892;16.746;2022-12-01T10:56:47;100348.95;;;0.49;81.09
37200;BME280;23096;50.892;16.746;2022-12-01T10:59:37;100348.11;;;0.48;81.05
37200;BME280;23096;50.892;16.746;2022-12-01T11:01:51;100354.91;;;0.49;81.04
37200;BME280;23096;50.892;16.746;2022-12-01T11:04:24;100354.55;;;0.51;81.12
37200;BME280;23096;50.892;16.746;2022-12-01T11:07:04;100350.64;;;0.48;81.01
37200;BME280;23096;50.892;16.746;2022-12-01T11:09:30;100353.23;;;0.50;81.11
37200;BME280;23096;50.892;16.746;2022-12-01T11:12:00;100349.05;;;0.52;81.09
37200;BME280;23096;50.892;16.746;2022-12-01T11:14:50;100353.36;;;0.54;81.13
37200;BME280;23096;50.892;16.746;2022-12-01T11:16:57;100350.50;;;0.58;81.13
37200;BME280;23096;50.892;16.746;2022-12-01T11:19:29;100354.69;;;0.57;81.04
37200;BME280;23096;50.892;16.746;2022-12-01T11:22:02;100347.50;;;0.57;81.03
37200;BME280;23096;50.892;16.746;2022-12-01T11:27:22;100347.88;;;0.55;80.99
37200;BME280;23096;50.892;16.746;2022-12-01T11:29:51;100340.30;;;0.56;81.05
37200;BME280;23096;50.892;16.746;2022-12-01T11:32:36;100349.70;;;0.61;81.11
37200;BME280;23096;50.892;16.746;2022-12-01T11:35:13;100342.20;;;0.65;81.13
37200;BME280;23096;50.892;16.746;2022-12-01T11:37:38;100351.58;;;0.68;81.10
37200;BME280;23096;50.892;16.746;2022-12-01T11:40:24;100341.44;;;0.68;81.06
37200;BME280;23096;50.892;16.746;2022-12-01T11:42:52;100345.24;;;0.68;81.04
37200;BME280;23096;50.892;16.746;2022-12-01T11:48:56;100344.82;;;0.68;81.04
37200;BME280;23096;50.892;16.746;2022-12-01T11:50:31;100344.45;;;0.70;81.06
37200;BME280;23096;50.892;16.746;2022-12-01T11:52:58;100336.45;;;0.71;81.05
37200;BME280;23096;50.892;16.746;2022-12-01T11:55:25;100336.46;;;0.72;81.07
37200;BME280;23096;50.892;16.746;2022-12-01T11:57:53;100342.05;;;0.75;81.06
37200;BME280;23096;50.892;16.746;2022-12-01T12:00:22;100342.47;;;0.76;81.05
37200;BME280;23096;50.892;16.746;2022-12-01T12:13:46;100340.31;;;0.74;80.95
37200;BME280;23096;50.892;16.746;2022-12-01T12:16:15;100338.23;;;0.75;81.00
37200;BME280;23096;50.892;16.746;2022-12-01T12:21:43;100339.22;;;0.80;81.04
37200;BME280;23096;50.892;16.746;2022-12-01T12:27:12;100335.47;;;0.83;81.00
37200;BME280;23096;50.892;16.746;2022-12-01T12:50:45;100331.27;;;0.84;80.79
37200;BME280;23096;50.892;16.746;2022-12-01T12:53:37;100337.23;;;0.86;80.91
37200;BME280;23096;50.892;16.746;2022-12-01T12:56:01;100340.25;;;0.88;80.90
37200;BME280;23096;50.892;16.746;2022-12-01T12:58:31;100341.52;;;0.88;80.85
37200;BME280;23096;50.892;16.746;2022-12-01T13:00:59;100342.88;;;0.91;80.91
37200;BME280;23096;50.892;16.746;2022-12-01T13:06:22;100344.19;;;0.93;80.88
37200;BME280;23096;50.892;16.746;2022-12-01T13:08:47;100340.80;;;0.94;80.90
37200;BME280;23096;50.892;16.746;2022-12-01T13:16:25;100350.62;;;0.98;80.85
37200;BME280;23096;50.892;16.746;2022-12-01T13:18:57;100347.66;;;0.97;80.81
37200;BME280;23096;50.892;16.746;2022-12-01T13:21:24;100337.46;;;0.95;80.84
37200;BME280;23096;50.892;16.746;2022-12-01T13:23:50;100344.28;;;0.98;80.88
37200;BME280;23096;50.892;16.746;2022-12-01T13:26:17;100345.63;;;1.01;80.92
37200;BME280;23096;50.892;16.746;2022-12-01T13:28:51;100340.52;;;0.99;80.79
37200;BME280;23096;50.892;16.746;2022-12-01T13:31:18;100346.02;;;0.99;80.82
37200;BME280;23096;50.892;16.746;2022-12-01T13:33:55;100346.43;;;0.98;80.83
37200;BME280;23096;50.892;16.746;2022-12-01T13:36:19;100345.55;;;0.98;80.84
37200;BME280;23096;50.892;16.746;2022-12-01T13:38:54;100347.70;;;1.00;80.86
37200;BME280;23096;50.892;16.746;2022-12-01T13:41:31;100345.63;;;1.01;80.82
37200;BME280;23096;50.892;16.746;2022-12-01T13:46:32;100353.67;;;1.00;80.79
37200;BME280;23096;50.892;16.746;2022-12-01T13:49:03;100343.01;;;0.98;80.74
37200;BME280;23096;50.892;16.746;2022-12-01T13:52:14;100353.62;;;0.99;80.81
37200;BME280;23096;50.892;16.746;2022-12-01T13:54:27;100348.59;;;1.00;80.84
37200;BME280;23096;50.892;16.746;2022-12-01T13:56:59;100354.09;;;1.01;80.83
37200;BME280;23096;50.892;16.746;2022-12-01T13:59:40;100344.03;;;1.04;80.85
37200;BME280;23096;50.892;16.746;2022-12-01T14:02:31;100342.72;;;1.03;80.79
37200;BME280;23096;50.892;16.746;2022-12-01T14:07:44;100342.28;;;1.02;80.78
37200;BME280;23096;50.892;16.746;2022-12-01T14:10:24;100345.17;;;1.00;80.77
37200;BME280;23096;50.892;16.746;2022-12-01T14:12:51;100335.86;;;0.99;80.79
37200;BME280;23096;50.892;16.746;2022-12-01T14:15:28;100337.55;;;0.98;80.84
37200;BME280;23096;50.892;16.746;2022-12-01T14:17:59;100338.83;;;1.00;80.76
37200;BME280;23096;50.892;16.746;2022-12-01T14:20:34;100342.16;;;0.97;80.73
37200;BME280;23096;50.892;16.746;2022-12-01T14:23:03;100338.77;;;0.97;80.78
37200;BME280;23096;50.892;16.746;2022-12-01T14:25:55;100340.09;;;0.98;80.79
37200;BME280;23096;50.892;16.746;2022-12-01T14:34:09;100340.09;;;1.00;80.82
37200;BME280;23096;50.892;16.746;2022-12-01T14:36:41;100336.28;;;1.00;80.83
37200;BME280;23096;50.892;16.746;2022-12-01T14:41:47;100338.48;;;1.03;80.85
37200;BME280;23096;50.892;16.746;2022-12-01T14:49:38;100330.95;;;1.06;80.80
37200;BME280;23096;50.892;16.746;2022-12-01T14:52:12;100335.61;;;1.07;80.77
37200;BME280;23096;50.892;16.746;2022-12-01T14:54:42;100334.34;;;1.07;80.77
37200;BME280;23096;50.892;16.746;2022-12-01T14:57:10;100332.64;;;1.06;80.78
37200;BME280;23096;50.892;16.746;2022-12-01T14:59:39;100331.80;;;1.05;80.73
37200;BME280;23096;50.892;16.746;2022-12-01T15:02:05;100331.75;;;1.04;80.75
37200;BME280;23096;50.892;16.746;2022-12-01T15:07:38;100333.83;;;1.03;80.72
37200;BME280;23096;50.892;16.746;2022-12-01T15:10:19;100325.70;;;0.99;80.70
37200;BME280;23096;50.892;16.746;2022-12-01T15:12:43;100323.12;;;0.97;80.72
37200;BME280;23096;50.892;16.746;2022-12-01T15:15:19;100321.48;;;0.99;80.77